Aviation Digital Data Service (ADDS)

Output produced by TAFs form (0902 UTC 20 October 2017)
found at http://www.aviationweather.gov/adds/tafs/
 
KATL 200852Z 35003KT 10SM FEW200 10/08 A3025 RMK AO2 SLP239 T01000078 58001
KATL 200754Z 2008/2112 00000KT P6SM SKC 
     FM201500 09005KT P6SM SKC 
     FM210300 10003KT P6SM SKC